Time;durP1;ratioP1;P1;durP2;ratioP2;P2;SDS_P1;SDS_P2;PMS_P1;PMS_P2;Temp;Humidity;BMP_temperature;BMP_pressure;BME280_temperature;BME280_humidity;BME280_pressure;Samples;Min_cycle;Max_cycle;Signal;HPM_P1;HPM_P2
2023/07/09 00:01:14;;;;;;;24.63;15.02;;;;;;;23.27;100.00;101627.66;4989368;28;20046;-73
2023/07/09 00:03:40;;;;;;;22.10;14.77;;;;;;;23.34;100.00;101619.69;4987246;28;20043;-73
2023/07/09 00:06:08;;;;;;;22.75;15.40;;;;;;;23.40;100.00;101619.91;4983285;28;20058;-73
2023/07/09 00:08:33;;;;;;;24.15;15.32;;;;;;;23.42;100.00;101619.75;4991776;28;20058;-72
2023/07/09 00:10:59;;;;;;;21.35;15.93;;;;;;;23.31;100.00;101618.16;4989613;28;20034;-72
2023/07/09 00:13:27;;;;;;;24.17;16.50;;;;;;;23.31;100.00;101620.88;4987648;28;20030;-73
2023/07/09 00:15:57;;;;;;;21.05;14.15;;;;;;;23.37;100.00;101631.09;4987884;28;20043;-73
2023/07/09 00:18:23;;;;;;;19.35;15.07;;;;;;;23.40;100.00;101633.53;4994625;28;20035;-72
2023/07/09 00:20:49;;;;;;;24.38;15.65;;;;;;;23.38;100.00;101629.25;4986756;28;20090;-72
2023/07/09 00:23:16;;;;;;;26.08;15.82;;;;;;;23.37;100.00;101627.53;4987744;28;20113;-72
2023/07/09 00:25:45;;;;;;;23.83;17.27;;;;;;;23.32;100.00;101627.16;4990852;28;20093;-73
2023/07/09 00:28:15;;;;;;;23.52;16.85;;;;;;;23.24;100.00;101626.13;4994211;28;20042;-72
2023/07/09 00:30:41;;;;;;;18.90;15.63;;;;;;;23.13;100.00;101625.50;4997989;28;20177;-73
2023/07/09 00:33:15;;;;;;;22.85;16.70;;;;;;;23.13;100.00;101620.91;4999111;28;20924;-73
2023/07/09 00:35:46;;;;;;;21.77;14.75;;;;;;;23.13;100.00;101622.78;4992167;28;21130;-72
2023/07/09 00:38:21;;;;;;;21.98;15.05;;;;;;;22.98;100.00;101628.81;4989559;28;20034;-73
2023/07/09 00:40:59;;;;;;;21.63;14.90;;;;;;;22.81;100.00;101624.25;4992780;28;20038;-73
2023/07/09 00:43:29;;;;;;;19.65;14.20;;;;;;;22.77;100.00;101630.16;4989795;28;20056;-73
2023/07/09 00:46:36;;;;;;;24.27;16.15;;;;;;;22.51;100.00;101624.66;4985506;28;20038;-73
2023/07/09 00:49:10;;;;;;;23.52;15.88;;;;;;;22.45;100.00;101624.28;4982373;28;20050;-71
2023/07/09 00:51:41;;;;;;;23.27;15.98;;;;;;;22.42;100.00;101632.72;4992518;28;20034;-71
2023/07/09 00:54:36;;;;;;;27.60;17.65;;;;;;;22.12;100.00;101633.94;4982753;28;20117;-74
2023/07/09 00:57:12;;;;;;;23.00;17.40;;;;;;;22.35;100.00;101636.25;4984983;28;20157;-73
2023/07/09 00:59:39;;;;;;;26.45;17.17;;;;;;;22.43;100.00;101631.72;4993622;28;20034;-72
2023/07/09 01:02:07;;;;;;;29.98;16.50;;;;;;;22.40;100.00;101637.47;4983392;28;20046;-74
2023/07/09 01:04:33;;;;;;;23.60;15.70;;;;;;;22.49;100.00;101636.56;4983718;28;20043;-73
2023/07/09 01:07:00;;;;;;;23.10;16.15;;;;;;;22.55;100.00;101637.78;4996058;28;21018;-72
2023/07/09 01:09:26;;;;;;;24.70;16.95;;;;;;;22.53;100.00;101639.78;5006824;28;21425;-74
2023/07/09 01:11:56;;;;;;;27.92;17.05;;;;;;;22.49;100.00;101638.38;4977981;28;20456;-74
2023/07/09 01:14:24;;;;;;;23.33;16.35;;;;;;;22.50;100.00;101640.13;4982556;28;20035;-73
2023/07/09 01:16:57;;;;;;;22.25;16.48;;;;;;;22.22;100.00;101644.75;4990633;28;20030;-73
2023/07/09 01:19:28;;;;;;;21.02;15.13;;;;;;;22.37;100.00;101643.22;4988137;28;20038;-72
2023/07/09 01:21:59;;;;;;;23.88;16.75;;;;;;;22.36;100.00;101646.94;4991482;28;20045;-72
2023/07/09 01:24:49;;;;;;;26.63;16.83;;;;;;;22.41;100.00;101641.91;4990843;28;20054;-73
2023/07/09 01:27:17;;;;;;;22.60;17.45;;;;;;;22.44;100.00;101640.72;4988526;28;20041;-72
2023/07/09 01:29:48;;;;;;;22.02;17.25;;;;;;;22.43;100.00;101629.00;4990112;28;20047;-71
2023/07/09 01:32:19;;;;;;;22.48;16.50;;;;;;;22.45;100.00;101640.59;4992732;28;20034;-73
2023/07/09 01:34:57;;;;;;;25.10;16.55;;;;;;;22.49;100.00;101636.56;4982648;28;20066;-74
2023/07/09 01:37:27;;;;;;;26.70;16.88;;;;;;;22.53;100.00;101631.63;4974202;28;21143;-73
2023/07/09 01:39:52;;;;;;;21.63;16.27;;;;;;;22.37;100.00;101636.94;4991266;28;20034;-72
2023/07/09 01:42:21;;;;;;;24.90;17.02;;;;;;;22.40;100.00;101636.63;4999486;28;20069;-72
2023/07/09 01:44:50;;;;;;;24.67;16.10;;;;;;;22.45;100.00;101628.88;5004271;28;20042;-71
2023/07/09 01:47:16;;;;;;;22.13;16.00;;;;;;;22.39;100.00;101624.03;4990279;28;20040;-73
2023/07/09 01:49:46;;;;;;;21.42;16.73;;;;;;;22.41;100.00;101628.31;4989023;28;20039;-72
2023/07/09 01:52:13;;;;;;;23.33;15.55;;;;;;;22.28;100.00;101625.09;5009426;28;20038;-72
2023/07/09 01:54:39;;;;;;;22.10;16.25;;;;;;;22.27;100.00;101623.41;4986930;28;20046;-73
2023/07/09 01:57:23;;;;;;;25.88;17.30;;;;;;;22.23;100.00;101627.44;4985488;28;20039;-73
2023/07/09 01:59:50;;;;;;;26.65;17.80;;;;;;;22.13;100.00;101626.66;4998772;28;20038;-73
2023/07/09 02:02:18;;;;;;;26.45;17.92;;;;;;;22.14;100.00;101626.53;4990770;28;20083;-74
2023/07/09 02:04:48;;;;;;;24.73;17.33;;;;;;;22.00;100.00;101631.59;5003232;28;20855;-74
2023/07/09 02:07:15;;;;;;;25.00;17.55;;;;;;;21.91;100.00;101639.63;4985754;28;20066;-73
2023/07/09 02:09:40;;;;;;;24.02;16.98;;;;;;;21.89;100.00;101644.38;4981357;28;20031;-73
2023/07/09 02:12:07;;;;;;;24.45;16.05;;;;;;;21.92;100.00;101635.91;4989275;28;20042;-73
2023/07/09 02:14:33;;;;;;;21.98;17.60;;;;;;;21.86;100.00;101636.50;4983781;28;20109;-75
2023/07/09 02:16:58;;;;;;;23.98;17.00;;;;;;;21.81;100.00;101636.09;4999008;28;20078;-74
2023/07/09 02:19:24;;;;;;;22.75;17.17;;;;;;;21.86;100.00;101632.94;4990044;28;20034;-74
2023/07/09 02:21:49;;;;;;;28.45;17.27;;;;;;;21.84;100.00;101634.94;4991184;28;20738;-74
2023/07/09 02:24:15;;;;;;;25.85;18.20;;;;;;;21.90;100.00;101640.63;4993688;28;20039;-74
2023/07/09 02:26:41;;;;;;;23.67;18.00;;;;;;;21.84;100.00;101654.81;4984060;28;20042;-73
2023/07/09 02:29:07;;;;;;;26.60;18.33;;;;;;;21.87;100.00;101661.81;4990592;28;20046;-73
2023/07/09 02:31:33;;;;;;;23.33;16.95;;;;;;;21.79;100.00;101656.25;4987238;28;20190;-74
2023/07/09 02:34:00;;;;;;;28.45;18.50;;;;;;;21.75;100.00;101663.88;4999922;28;21245;-73
2023/07/09 02:36:26;;;;;;;23.52;17.65;;;;;;;21.69;100.00;101659.03;5004043;28;20045;-74
2023/07/09 02:38:51;;;;;;;28.48;19.73;;;;;;;21.73;100.00;101664.00;4995215;28;20039;-74
2023/07/09 02:41:17;;;;;;;24.33;17.85;;;;;;;21.79;100.00;101667.13;4983677;28;20117;-74
2023/07/09 02:43:43;;;;;;;23.67;17.60;;;;;;;21.57;100.00;101655.66;4982014;28;20037;-74
2023/07/09 02:46:10;;;;;;;21.20;17.27;;;;;;;21.66;100.00;101654.75;4996337;28;20043;-73
2023/07/09 02:48:36;;;;;;;25.98;18.50;;;;;;;21.65;100.00;101661.19;4990557;28;20034;-73
2023/07/09 02:51:01;;;;;;;25.52;19.08;;;;;;;21.70;100.00;101660.75;4994592;28;20042;-74
2023/07/09 02:53:27;;;;;;;28.15;18.85;;;;;;;21.71;100.00;101671.44;4992564;28;20764;-74
2023/07/09 02:55:54;;;;;;;21.70;18.27;;;;;;;21.65;100.00;101663.91;4993447;28;20050;-74
2023/07/09 02:58:20;;;;;;;27.52;17.73;;;;;;;21.55;100.00;101665.81;4994108;28;20100;-73
2023/07/09 03:00:51;;;;;;;23.00;18.70;;;;;;;21.46;100.00;101670.25;4993103;28;20096;-74
2023/07/09 03:03:18;;;;;;;22.50;18.63;;;;;;;21.55;100.00;101671.25;4993322;28;20035;-74
2023/07/09 03:05:47;;;;;;;23.23;17.92;;;;;;;21.58;100.00;101670.91;4984177;28;20039;-74
2023/07/09 03:08:14;;;;;;;28.13;19.30;;;;;;;21.70;100.00;101677.03;4992655;28;20038;-74
2023/07/09 03:10:40;;;;;;;32.15;18.08;;;;;;;21.62;100.00;101674.19;4984044;28;20045;-72
2023/07/09 03:13:06;;;;;;;23.83;18.63;;;;;;;21.75;100.00;101684.75;4984397;28;20042;-74
2023/07/09 03:15:32;;;;;;;27.20;18.10;;;;;;;21.70;100.00;101682.47;4982413;28;20808;-73
2023/07/09 03:17:57;;;;;;;26.65;18.08;;;;;;;21.69;100.00;101681.63;4984850;28;20038;-74
2023/07/09 03:20:25;;;;;;;22.52;17.52;;;;;;;21.58;100.00;101673.63;4970671;28;20035;-74
2023/07/09 03:22:50;;;;;;;23.27;18.30;;;;;;;21.40;100.00;101679.00;4977402;28;20030;-73
2023/07/09 03:25:16;;;;;;;20.73;16.50;;;;;;;21.33;100.00;101685.16;4985083;28;20048;-74
2023/07/09 03:27:41;;;;;;;28.25;17.42;;;;;;;21.28;100.00;101680.13;4990782;28;20037;-74
2023/07/09 03:30:07;;;;;;;23.85;18.17;;;;;;;21.33;100.00;101682.44;4981260;28;20039;-72
2023/07/09 03:32:33;;;;;;;24.27;17.02;;;;;;;21.28;100.00;101684.69;4984054;28;20042;-73
2023/07/09 03:34:58;;;;;;;25.30;17.10;;;;;;;21.29;100.00;101686.44;4990235;28;20891;-72
2023/07/09 03:37:24;;;;;;;22.60;15.30;;;;;;;21.26;100.00;101678.56;4992494;28;20542;-74
2023/07/09 03:39:49;;;;;;;22.35;17.35;;;;;;;21.33;100.00;101675.16;4990468;28;20026;-74
2023/07/09 03:42:16;;;;;;;25.88;17.45;;;;;;;21.43;100.00;101669.69;5001839;28;20031;-73
2023/07/09 03:44:41;;;;;;;23.27;16.75;;;;;;;21.48;100.00;101672.81;4993674;28;20045;-73
2023/07/09 03:47:07;;;;;;;27.08;16.77;;;;;;;21.53;100.00;101675.94;4993976;28;20050;-73
2023/07/09 03:49:33;;;;;;;26.27;15.77;;;;;;;21.56;100.00;101664.78;4988885;28;20851;-73
2023/07/09 03:51:58;;;;;;;26.13;16.35;;;;;;;21.78;100.00;101668.97;4981555;28;20086;-73
2023/07/09 03:54:24;;;;;;;23.40;15.82;;;;;;;21.77;100.00;101669.13;4992385;28;20141;-74
2023/07/09 03:56:50;;;;;;;19.73;15.43;;;;;;;21.77;100.00;101675.44;4990561;28;20533;-73
2023/07/09 03:59:15;;;;;;;21.75;16.38;;;;;;;21.78;100.00;101666.25;4975778;28;20477;-73
2023/07/09 04:01:46;;;;;;;22.73;16.73;;;;;;;21.84;100.00;101670.25;4993594;28;20039;-74
2023/07/09 04:04:12;;;;;;;23.70;17.15;;;;;;;21.92;100.00;101676.63;4991389;28;20046;-73
2023/07/09 04:06:39;;;;;;;23.90;17.70;;;;;;;22.14;100.00;101672.72;4982780;28;20921;-73
2023/07/09 04:09:05;;;;;;;19.58;16.15;;;;;;;22.52;100.00;101664.41;4982947;28;20035;-73
2023/07/09 04:11:31;;;;;;;22.30;16.83;;;;;;;22.89;100.00;101661.53;4976832;28;20142;-73
2023/07/09 04:13:56;;;;;;;23.30;15.80;;;;;;;23.29;100.00;101661.00;4980848;28;20046;-73
2023/07/09 04:16:22;;;;;;;21.42;15.98;;;;;;;23.60;100.00;101661.38;4992323;28;20034;-74
2023/07/09 04:18:47;;;;;;;19.75;15.43;;;;;;;23.95;100.00;101654.06;4986262;28;20034;-73
2023/07/09 04:21:13;;;;;;;23.77;15.23;;;;;;;24.17;100.00;101653.44;4991917;28;20548;-74
2023/07/09 04:23:39;;;;;;;22.85;16.35;;;;;;;24.29;100.00;101652.09;4981718;28;20093;-72
2023/07/09 04:26:08;;;;;;;18.08;15.02;;;;;;;24.36;100.00;101659.66;5000892;28;20074;-73
2023/07/09 04:28:34;;;;;;;19.85;15.32;;;;;;;24.41;100.00;101660.00;4991777;28;20038;-73
2023/07/09 04:31:00;;;;;;;24.30;16.35;;;;;;;24.79;100.00;101656.59;4985712;28;20034;-74
2023/07/09 04:33:26;;;;;;;23.02;16.90;;;;;;;25.43;95.27;101659.47;4985687;28;20038;-73
2023/07/09 04:35:52;;;;;;;26.10;17.08;;;;;;;25.98;90.51;101655.88;4996639;28;20208;-74
2023/07/09 04:38:17;;;;;;;20.65;16.13;;;;;;;26.38;87.45;101650.38;4976131;28;20034;-74
2023/07/09 04:40:44;;;;;;;19.92;16.27;;;;;;;26.84;82.71;101646.59;4988672;28;20030;-74
2023/07/09 04:43:10;;;;;;;20.15;15.93;;;;;;;27.14;77.91;101649.44;4992759;28;20078;-73
2023/07/09 04:45:35;;;;;;;26.98;16.98;;;;;;;27.20;79.36;101653.31;4993482;28;20110;-74
2023/07/09 04:48:01;;;;;;;26.95;16.10;;;;;;;27.05;81.18;101656.84;4987665;28;20147;-74
2023/07/09 04:50:27;;;;;;;20.02;16.00;;;;;;;26.88;81.70;101655.31;4980444;28;20066;-74
2023/07/09 04:52:52;;;;;;;24.17;17.13;;;;;;;26.77;81.94;101647.53;4992436;28;20050;-73
2023/07/09 04:55:18;;;;;;;19.13;15.77;;;;;;;26.77;81.80;101650.28;4976072;28;20811;-72
2023/07/09 04:57:45;;;;;;;20.65;14.88;;;;;;;26.51;82.84;101646.03;4982068;28;20053;-73
2023/07/09 05:00:11;;;;;;;18.60;14.35;;;;;;;26.48;84.16;101646.38;4972742;28;20042;-73
2023/07/09 05:02:37;;;;;;;33.25;18.48;;;;;;;26.55;84.10;101650.09;4988005;28;20042;-73
2023/07/09 05:05:02;;;;;;;20.60;15.30;;;;;;;26.63;84.61;101653.81;4990246;28;20921;-74
2023/07/09 05:07:28;;;;;;;22.27;15.98;;;;;;;26.99;84.23;101656.75;4994017;28;20042;-72
2023/07/09 05:09:54;;;;;;;20.45;15.40;;;;;;;27.25;82.13;101657.19;4984877;28;20857;-74
2023/07/09 05:12:20;;;;;;;25.90;16.58;;;;;;;26.97;82.83;101662.41;4984782;28;20038;-73
2023/07/09 05:14:46;;;;;;;23.02;16.52;;;;;;;26.83;82.83;101658.59;4988661;28;20369;-74
2023/07/09 05:17:12;;;;;;;20.35;15.50;;;;;;;27.41;82.62;101652.59;4977858;28;20090;-75
2023/07/09 05:19:38;;;;;;;20.27;15.65;;;;;;;27.68;82.40;101671.13;4989303;28;20031;-73
2023/07/09 05:22:04;;;;;;;20.80;15.55;;;;;;;27.87;78.98;101665.09;4984804;28;20077;-73
2023/07/09 05:24:30;;;;;;;20.27;15.07;;;;;;;27.88;80.10;101658.56;4982409;28;20424;-72
2023/07/09 05:26:55;;;;;;;21.08;16.23;;;;;;;27.94;79.25;101667.91;4976256;28;20074;-73
2023/07/09 05:29:22;;;;;;;21.63;15.10;;;;;;;28.61;75.12;101664.03;4996223;28;20055;-73
2023/07/09 05:31:47;;;;;;;23.70;17.17;;;;;;;29.15;71.79;101661.59;4987666;28;20092;-73
2023/07/09 05:34:13;;;;;;;23.05;16.23;;;;;;;29.68;68.24;101669.41;4985668;28;20030;-73
2023/07/09 05:36:39;;;;;;;25.83;16.23;;;;;;;30.17;64.75;101669.22;4981477;28;20093;-72
2023/07/09 05:39:05;;;;;;;19.50;14.95;;;;;;;30.32;62.88;101674.53;4990924;28;20122;-72
2023/07/09 05:41:30;;;;;;;19.55;15.80;;;;;;;29.54;61.99;101676.72;4989899;28;20043;-72
2023/07/09 05:43:56;;;;;;;19.75;14.77;;;;;;;28.88;64.28;101671.50;4988756;28;20117;-72
2023/07/09 05:46:23;;;;;;;20.75;15.27;;;;;;;28.73;65.89;101668.00;4982094;28;20385;-73
2023/07/09 05:48:49;;;;;;;22.58;14.98;;;;;;;28.75;66.19;101668.63;4985245;28;22237;-72
2023/07/09 05:51:14;;;;;;;17.40;13.82;;;;;;;29.06;65.04;101672.94;4993747;28;20081;-72
2023/07/09 05:53:40;;;;;;;19.40;13.93;;;;;;;28.80;66.04;101674.38;4996027;28;20039;-73
2023/07/09 05:56:06;;;;;;;18.88;14.13;;;;;;;28.67;66.25;101668.78;4992639;28;20185;-73
2023/07/09 05:58:32;;;;;;;17.27;13.88;;;;;;;29.29;67.68;101669.97;4994972;28;20045;-76
2023/07/09 06:00:57;;;;;;;25.10;14.48;;;;;;;29.00;66.39;101677.34;4996078;28;20043;-74
2023/07/09 06:03:26;;;;;;;21.60;14.02;;;;;;;29.08;67.50;101676.34;4991387;28;20072;-71
2023/07/09 06:05:52;;;;;;;17.80;14.40;;;;;;;28.84;67.40;101672.94;4989671;28;20059;-74
2023/07/09 06:08:19;;;;;;;20.10;15.85;;;;;;;29.32;69.09;101677.78;4991416;28;20058;-74
2023/07/09 06:11:04;;;;;;;23.13;14.93;;;;;;;29.30;69.87;101671.66;4989756;28;20034;-73
2023/07/09 06:13:33;;;;;;;20.35;14.75;;;;;;;29.21;70.84;101679.19;5004137;28;20035;-73
2023/07/09 06:16:00;;;;;;;20.35;15.35;;;;;;;29.14;69.79;101678.31;4988613;28;20034;-74
2023/07/09 06:18:29;;;;;;;17.65;14.20;;;;;;;29.32;70.40;101677.78;4992628;28;20034;-73
2023/07/09 06:20:57;;;;;;;19.40;14.45;;;;;;;29.04;70.38;101672.31;4999794;28;20077;-74
2023/07/09 06:23:23;;;;;;;18.58;14.65;;;;;;;29.26;69.99;101678.59;4993906;28;20030;-73
2023/07/09 06:25:48;;;;;;;17.27;13.40;;;;;;;29.40;69.84;101686.72;4985284;28;20070;-74
2023/07/09 06:28:19;;;;;;;19.40;14.23;;;;;;;29.30;70.35;101686.22;4987037;28;20629;-72
2023/07/09 06:30:46;;;;;;;18.47;13.00;;;;;;;29.77;69.30;101689.31;4987421;28;20868;-73
2023/07/09 06:33:16;;;;;;;18.92;12.93;;;;;;;29.64;69.64;101692.84;4984113;28;20034;-72
2023/07/09 06:35:50;;;;;;;15.27;12.13;;;;;;;29.73;69.16;101697.13;4983607;28;20523;-73
2023/07/09 06:38:16;;;;;;;18.35;13.48;;;;;;;29.98;69.27;101694.72;4993308;28;20156;-74
2023/07/09 06:40:42;;;;;;;17.50;12.55;;;;;;;30.33;68.15;101694.69;4989843;28;20023;-73
2023/07/09 06:43:07;;;;;;;20.25;13.98;;;;;;;30.24;67.95;101698.66;4982129;28;20884;-73
2023/07/09 06:45:37;;;;;;;24.00;13.75;;;;;;;30.56;65.35;101694.31;4993698;28;20042;-75
2023/07/09 06:48:03;;;;;;;19.58;13.10;;;;;;;30.12;65.13;101693.75;4993015;28;20157;-73
2023/07/09 06:50:32;;;;;;;19.88;11.80;;;;;;;30.38;66.55;101697.66;4992289;28;20050;-73
2023/07/09 06:52:58;;;;;;;16.13;11.63;;;;;;;30.57;63.85;101702.34;4974477;28;20046;-73
2023/07/09 06:55:23;;;;;;;18.80;11.60;;;;;;;30.28;65.11;101706.31;4987140;28;20049;-74
2023/07/09 06:57:49;;;;;;;16.35;11.77;;;;;;;30.31;66.74;101705.03;4978355;28;20046;-74
2023/07/09 07:00:15;;;;;;;14.60;10.48;;;;;;;31.04;67.30;101703.31;4976942;28;20496;-73
2023/07/09 07:02:41;;;;;;;14.23;10.88;;;;;;;31.28;65.88;101698.22;4987732;28;20415;-72
2023/07/09 07:05:06;;;;;;;19.02;12.20;;;;;;;31.23;63.65;101700.72;4990456;28;20038;-72
2023/07/09 07:07:32;;;;;;;18.42;11.43;;;;;;;31.37;62.43;101695.03;4987363;28;20046;-73
2023/07/09 07:09:58;;;;;;;17.15;11.85;;;;;;;31.11;62.58;101697.78;4982705;28;20576;-73
2023/07/09 07:12:29;;;;;;;19.50;11.98;;;;;;;30.96;61.26;101709.00;4979827;28;20043;-73
2023/07/09 07:14:55;;;;;;;;;;;;;;;30.95;63.19;101702.66;4999193;28;20035;-74
2023/07/09 07:17:21;;;;;;;13.32;10.45;;;;;;;31.31;62.46;101695.91;4989368;28;19964;-73
2023/07/09 07:19:47;;;;;;;15.98;10.90;;;;;;;31.19;62.35;101692.06;4990195;28;20680;-72
2023/07/09 07:22:13;;;;;;;13.02;10.07;;;;;;;31.52;60.81;101697.56;4981702;28;20042;-73
2023/07/09 07:24:38;;;;;;;16.65;11.23;;;;;;;31.59;60.76;101695.66;4995486;28;20038;-73
2023/07/09 07:27:04;;;;;;;17.58;12.18;;;;;;;31.06;61.24;101697.56;4986600;28;20046;-72
2023/07/09 07:29:30;;;;;;;19.13;11.88;;;;;;;31.07;61.24;101696.50;4981693;28;20055;-73
2023/07/09 07:31:55;;;;;;;15.85;12.07;;;;;;;31.30;61.85;101690.59;4992150;28;20113;-72
2023/07/09 07:34:21;;;;;;;15.48;11.50;;;;;;;30.82;63.77;101691.63;4986486;28;20034;-72
2023/07/09 07:36:49;;;;;;;18.48;11.48;;;;;;;30.86;62.18;101687.38;4996251;28;20047;-72
2023/07/09 07:39:15;;;;;;;17.83;12.70;;;;;;;31.30;63.31;101691.44;4988103;28;20041;-72
2023/07/09 07:41:41;;;;;;;18.83;11.90;;;;;;;31.67;63.63;101689.88;4984281;28;20042;-72
2023/07/09 07:44:07;;;;;;;16.55;12.43;;;;;;;31.08;68.11;101690.81;4999016;28;20106;-73
2023/07/09 07:46:33;;;;;;;18.73;13.05;;;;;;;31.43;64.37;101685.94;5000868;28;20030;-73
2023/07/09 07:48:59;;;;;;;22.70;12.50;;;;;;;31.30;63.30;101683.19;4992098;28;20084;-72
2023/07/09 07:51:25;;;;;;;17.30;11.88;;;;;;;31.37;61.95;101684.00;4987277;28;20475;-73
2023/07/09 07:53:52;;;;;;;19.92;12.55;;;;;;;30.97;63.71;101690.56;4986354;28;20035;-72
2023/07/09 07:56:17;;;;;;;22.98;12.65;;;;;;;31.11;64.33;101682.09;4994998;28;20052;-72
2023/07/09 07:58:43;;;;;;;20.20;13.25;;;;;;;31.19;65.98;101687.41;4990767;28;20054;-72
2023/07/09 08:01:09;;;;;;;21.73;13.93;;;;;;;31.27;64.80;101693.78;4991836;28;20041;-71
2023/07/09 08:03:35;;;;;;;18.10;12.27;;;;;;;31.56;68.51;101682.28;4992462;28;20092;-73
2023/07/09 08:06:00;;;;;;;17.77;12.85;;;;;;;31.24;68.23;101680.41;4999434;28;20047;-72
2023/07/09 08:08:26;;;;;;;22.77;12.80;;;;;;;31.37;71.77;101677.66;4990669;28;20046;-73
2023/07/09 08:10:51;;;;;;;21.65;12.95;;;;;;;31.15;70.58;101675.09;4984911;28;20043;-73
2023/07/09 08:13:18;;;;;;;15.75;12.60;;;;;;;31.32;67.71;101674.69;4986203;28;20121;-73
2023/07/09 08:15:45;;;;;;;14.73;11.90;;;;;;;31.79;70.68;101680.97;5000124;28;20054;-73
2023/07/09 08:18:11;;;;;;;19.10;12.90;;;;;;;31.43;70.34;101680.41;4993002;28;20148;-72
2023/07/09 08:20:36;;;;;;;16.05;12.43;;;;;;;31.84;65.79;101672.91;4984427;28;20038;-72
2023/07/09 08:23:02;;;;;;;18.60;12.40;;;;;;;31.80;69.58;101680.72;4992929;28;20104;-73
2023/07/09 08:25:28;;;;;;;21.58;12.45;;;;;;;31.80;67.43;101669.69;4979855;28;20039;-72
2023/07/09 08:27:53;;;;;;;17.23;12.20;;;;;;;31.97;66.96;101673.69;4985773;28;20133;-73
2023/07/09 08:30:19;;;;;;;17.33;11.75;;;;;;;31.95;64.69;101674.97;4990758;28;20034;-72
2023/07/09 08:32:44;;;;;;;20.95;11.88;;;;;;;32.28;64.88;101672.03;4992163;28;20041;-73
2023/07/09 08:35:12;;;;;;;16.90;11.15;;;;;;;31.91;64.39;101670.97;4993765;28;20035;-73
2023/07/09 08:37:38;;;;;;;18.40;11.88;;;;;;;32.40;64.66;101664.78;5005293;28;20038;-72
2023/07/09 08:40:06;;;;;;;20.70;11.93;;;;;;;32.52;64.43;101667.69;4985646;28;20143;-72
2023/07/09 08:42:41;;;;;;;19.98;11.95;;;;;;;32.20;65.18;101666.78;4987236;28;20985;-73
2023/07/09 08:45:23;;;;;;;16.48;11.63;;;;;;;32.46;65.07;101660.31;4989201;28;20848;-72
2023/07/09 08:48:03;;;;;;;15.65;10.93;;;;;;;33.11;65.56;101671.09;4988133;28;20114;-72
2023/07/09 08:50:39;;;;;;;16.35;10.75;;;;;;;32.87;61.25;101672.75;4989874;28;20061;-72
2023/07/09 08:53:18;;;;;;;13.88;10.82;;;;;;;32.90;61.23;101672.34;4987446;28;20042;-73
2023/07/09 08:55:45;;;;;;;17.30;10.98;;;;;;;33.15;62.70;101664.03;4987086;28;20038;-75
2023/07/09 08:58:17;;;;;;;17.83;10.30;;;;;;;33.36;57.61;101658.09;4995427;28;20089;-72
2023/07/09 09:00:55;;;;;;;18.75;10.95;;;;;;;32.88;56.64;101652.31;4986478;28;20139;-75
2023/07/09 09:03:58;;;;;;;16.35;10.15;;;;;;;32.98;55.70;101653.56;4981932;28;20113;-73
2023/07/09 09:06:30;;;;;;;17.13;10.20;;;;;;;32.69;56.99;101659.72;4963029;28;20115;-73
2023/07/09 09:09:15;;;;;;;17.85;10.13;;;;;;;32.90;57.77;101661.28;4979734;28;20043;-73
2023/07/09 09:11:48;;;;;;;16.75;10.27;;;;;;;33.59;58.85;101659.34;4987804;28;21194;-73
2023/07/09 09:14:26;;;;;;;16.55;11.70;;;;;;;33.45;55.64;101662.28;4986851;28;20895;-74
2023/07/09 09:16:52;;;;;;;15.30;9.85;;;;;;;33.48;56.35;101658.19;5003640;28;20112;-74
2023/07/09 09:19:30;;;;;;;18.70;10.23;;;;;;;33.22;56.21;101664.81;4970540;28;20070;-74
2023/07/09 09:22:08;;;;;;;16.08;10.75;;;;;;;33.49;56.73;101655.22;4991995;28;20035;-75
2023/07/09 09:24:48;;;;;;;13.32;9.95;;;;;;;33.61;57.63;101655.28;4989839;28;20117;-74
2023/07/09 09:27:14;;;;;;;13.37;9.60;;;;;;;33.60;58.97;101650.84;4991661;28;20034;-73
2023/07/09 09:29:40;;;;;;;16.45;9.85;;;;;;;33.37;58.67;101647.88;4984033;28;20055;-72
2023/07/09 09:32:31;;;;;;;16.30;9.90;;;;;;;33.26;58.21;101643.94;4990334;28;20046;-71
2023/07/09 09:34:57;;;;;;;15.93;10.53;;;;;;;33.34;58.11;101637.28;4986329;28;20046;-73
2023/07/09 09:37:32;;;;;;;17.95;10.57;;;;;;;33.41;54.61;101647.19;4969716;28;20419;-73
2023/07/09 09:39:59;;;;;;;18.02;9.65;;;;;;;33.87;57.25;101639.44;4985821;28;20153;-73
2023/07/09 09:42:25;;;;;;;16.60;10.35;;;;;;;33.91;56.10;101643.44;4984066;28;20038;-73
2023/07/09 09:44:54;;;;;;;14.52;10.68;;;;;;;33.54;56.41;101635.16;4979931;28;20046;-73
2023/07/09 09:47:20;;;;;;;14.57;9.40;;;;;;;33.39;57.04;101643.81;4975480;28;20571;-72
2023/07/09 09:49:46;;;;;;;21.05;10.10;;;;;;;33.72;55.43;101635.13;4990397;28;20101;-73
2023/07/09 09:52:14;;;;;;;16.85;10.52;;;;;;;33.35;53.73;101639.81;4990197;28;20034;-73
2023/07/09 09:54:44;;;;;;;16.77;10.77;;;;;;;33.47;54.34;101634.38;4984853;28;20041;-73
2023/07/09 09:57:17;;;;;;;17.17;10.63;;;;;;;33.56;55.93;101638.53;4992819;28;20038;-73
2023/07/09 09:59:42;;;;;;;16.67;8.75;;;;;;;33.62;54.53;101642.28;4984565;28;20073;-73
2023/07/09 10:02:18;;;;;;;20.50;10.00;;;;;;;33.92;53.55;101645.97;4990242;28;20037;-73
2023/07/09 10:04:47;;;;;;;12.88;9.63;;;;;;;34.53;55.14;101642.16;4992630;28;20838;-73
2023/07/09 10:07:34;;;;;;;12.10;8.75;;;;;;;34.47;50.52;101643.13;4981743;28;20986;-72
2023/07/09 10:10:04;;;;;;;16.98;10.13;;;;;;;34.38;52.73;101649.19;4991451;28;20035;-72
2023/07/09 10:12:38;;;;;;;21.40;10.20;;;;;;;34.89;51.54;101648.59;5000618;28;20050;-72
2023/07/09 10:15:45;;;;;;;15.55;8.88;;;;;;;35.00;51.55;101644.22;4989805;28;20098;-72
2023/07/09 10:18:44;;;;;;;13.63;9.35;;;;;;;35.38;49.43;101642.88;4989731;28;20049;-72
2023/07/09 10:21:34;;;;;;;13.30;7.97;;;;;;;34.89;47.89;101643.06;4992244;28;20045;-72
2023/07/09 10:24:07;;;;;;;14.32;9.48;;;;;;;34.40;48.34;101639.59;4987623;28;20097;-73
2023/07/09 10:26:47;;;;;;;19.90;8.60;;;;;;;34.50;50.11;101631.56;5001899;28;20044;-73
2023/07/09 10:29:32;;;;;;;15.32;8.45;;;;;;;34.69;48.67;101621.25;4993883;28;20159;-72
2023/07/09 10:32:15;;;;;;;14.18;7.40;;;;;;;34.50;48.95;101617.72;5003485;28;20097;-73
2023/07/09 10:35:09;;;;;;;12.05;8.40;;;;;;;34.28;49.96;101625.69;4995735;28;20038;-73
2023/07/09 10:37:59;;;;;;;11.50;8.02;;;;;;;34.82;49.44;101609.09;5006393;28;20047;-73
2023/07/09 10:40:33;;;;;;;12.67;7.90;;;;;;;34.83;48.26;101602.44;4986949;28;20043;-72
2023/07/09 10:43:02;;;;;;;11.52;7.55;;;;;;;35.03;47.01;101608.50;4984357;28;20464;-73
2023/07/09 10:45:39;;;;;;;10.50;7.75;;;;;;;35.01;49.57;101609.84;4990159;28;20041;-73
2023/07/09 10:48:17;;;;;;;10.27;8.32;;;;;;;35.10;50.57;101602.88;4996873;28;20047;-73
2023/07/09 10:50:49;;;;;;;12.88;7.07;;;;;;;34.76;47.80;101602.56;4987691;28;20034;-73
2023/07/09 10:53:31;;;;;;;9.70;5.95;;;;;;;34.76;45.56;101602.56;4984217;28;20030;-72
2023/07/09 10:56:10;;;;;;;11.98;6.60;;;;;;;35.20;45.99;101596.72;4991109;28;20145;-72
2023/07/09 10:58:54;;;;;;;9.18;6.05;;;;;;;34.77;42.82;101601.50;4989480;28;20034;-72
2023/07/09 11:01:29;;;;;;;9.05;5.18;;;;;;;35.48;45.24;101602.34;4979600;28;20121;-72
2023/07/09 11:04:00;;;;;;;11.13;6.40;;;;;;;35.15;43.67;101602.16;4987859;28;20101;-72
2023/07/09 11:06:25;;;;;;;;;;;;;;;34.97;43.55;101603.09;4995055;28;20073;-72
2023/07/09 11:08:53;;;;;;;11.82;7.10;;;;;;;34.81;42.51;101610.19;4990847;28;21124;-73
2023/07/09 11:11:33;;;;;;;10.02;6.35;;;;;;;35.22;45.23;101597.28;4985894;28;20049;-72
2023/07/09 11:14:11;;;;;;;12.05;7.30;;;;;;;35.04;45.96;101603.81;5003477;28;20049;-73
2023/07/09 11:16:43;;;;;;;18.77;7.97;;;;;;;34.83;45.79;101610.78;4986620;28;20045;-72